Time;durP1;ratioP1;P1;durP2;ratioP2;P2;SDS_P1;SDS_P2;PMS_P1;PMS_P2;Temp;Humidity;BMP_temperature;BMP_pressure;BME280_temperature;BME280_humidity;BME280_pressure;Samples;Min_cycle;Max_cycle;Signal;HPM_P1;HPM_P2
2023/10/09 00:01:51;;;;;;;17.97;5.93;;;;;;;;;;5074403;28;20432;-76
2023/10/09 00:04:20;;;;;;;19.70;6.20;;;;;;;;;;5074698;28;20456;-76
2023/10/09 00:06:48;;;;;;;13.20;7.33;;;;;;;;;;5074740;28;20475;-76
2023/10/09 00:09:29;;;;;;;9.37;5.00;;;;;;;;;;5074258;28;20510;-76
2023/10/09 00:11:57;;;;;;;12.80;5.27;;;;;;;;;;5074183;28;20435;-75
2023/10/09 00:14:26;;;;;;;10.70;5.97;;;;;;;;;;5074181;28;21031;-75
2023/10/09 00:17:05;;;;;;;10.63;5.57;;;;;;;;;;5074521;28;20436;-75
2023/10/09 00:19:33;;;;;;;8.83;4.90;;;;;;;;;;5074466;28;20895;-76
2023/10/09 00:22:04;;;;;;;15.57;5.47;;;;;;;;;;5073812;28;20983;-75
2023/10/09 00:24:35;;;;;;;11.90;4.40;;;;;;;;;;5074046;28;20421;-76
2023/10/09 00:27:12;;;;;;;11.23;5.00;;;;;;;;;;5074312;28;20429;-75
2023/10/09 00:29:44;;;;;;;10.10;4.70;;;;;;;;;;5074404;28;20823;-76
2023/10/09 00:32:22;;;;;;;12.50;4.60;;;;;;;;;;5074040;28;20432;-76
2023/10/09 00:34:50;;;;;;;10.73;5.17;;;;;;;;;;5073902;28;20421;-75
2023/10/09 00:37:22;;;;;;;13.37;4.97;;;;;;;;;;5074044;28;20436;-76
2023/10/09 00:39:55;;;;;;;13.90;4.37;;;;;;;;;;5074027;28;20802;-76
2023/10/09 00:42:27;;;;;;;12.90;4.80;;;;;;;;;;5073912;28;20432;-75
2023/10/09 00:44:56;;;;;;;10.03;4.00;;;;;;;;;;5073698;28;20428;-75
2023/10/09 00:47:26;;;;;;;10.90;5.17;;;;;;;;;;5070328;28;20486;-75
2023/10/09 00:50:00;;;;;;;16.80;5.07;;;;;;;;;;5073649;28;20886;-75
2023/10/09 00:52:33;;;;;;;9.33;5.23;;;;;;;;;;5064458;28;20523;-76
2023/10/09 00:55:10;;;;;;;15.30;5.77;;;;;;;;;;5053522;28;20491;-75
2023/10/09 00:57:41;;;;;;;10.10;4.60;;;;;;;;;;5053664;28;20456;-75
2023/10/09 01:00:32;;;;;;;15.30;4.73;;;;;;;;;;5052763;28;20579;-76
2023/10/09 01:03:11;;;;;;;10.97;5.07;;;;;;;;;;5069065;28;20522;-76
2023/10/09 01:05:45;;;;;;;10.73;5.37;;;;;;;;;;5073102;28;20433;-75
2023/10/09 01:08:28;;;;;;;13.70;5.17;;;;;;;;;;5061473;28;20904;-75
2023/10/09 01:10:57;;;;;;;10.53;4.10;;;;;;;;;;5060759;28;20871;-75
2023/10/09 01:13:38;;;;;;;15.17;5.27;;;;;;;;;;5054981;28;20476;-75
2023/10/09 01:16:12;;;;;;;9.70;5.00;;;;;;;;;;5061258;28;20448;-75
2023/10/09 01:18:44;;;;;;;15.87;4.90;;;;;;;;;;5069458;28;20441;-76
2023/10/09 01:21:12;;;;;;;11.43;4.80;;;;;;;;;;5072856;28;20460;-75
2023/10/09 01:24:02;;;;;;;10.10;4.47;;;;;;;;;;5072685;28;20463;-75
2023/10/09 01:26:32;;;;;;;17.10;4.40;;;;;;;;;;5072791;28;20443;-76
2023/10/09 01:29:00;;;;;;;11.27;4.47;;;;;;;;;;5072853;28;20515;-75
2023/10/09 01:31:37;;;;;;;8.80;3.97;;;;;;;;;;5073331;28;20436;-75
2023/10/09 01:34:09;;;;;;;11.53;5.27;;;;;;;;;;5072640;28;20494;-75
2023/10/09 01:36:39;;;;;;;11.20;5.50;;;;;;;;;;5072986;28;20964;-75
2023/10/09 01:39:21;;;;;;;8.40;4.20;;;;;;;;;;5073276;28;20463;-76
2023/10/09 01:41:49;;;;;;;12.60;4.47;;;;;;;;;;5072655;28;20421;-76
2023/10/09 01:44:17;;;;;;;13.77;4.30;;;;;;;;;;5073159;28;20836;-76
2023/10/09 01:46:45;;;;;;;14.93;5.00;;;;;;;;;;5073480;28;20428;-76
2023/10/09 01:49:17;;;;;;;8.90;3.80;;;;;;;;;;5072420;28;20476;-76
2023/10/09 01:51:45;;;;;;;15.40;4.47;;;;;;;;;;5072522;28;20435;-75
2023/10/09 01:54:27;;;;;;;8.43;4.23;;;;;;;;;;5072662;28;20475;-76
2023/10/09 01:56:56;;;;;;;13.43;5.07;;;;;;;;;;5073530;28;20873;-76
2023/10/09 01:59:23;;;;;;;13.33;4.23;;;;;;;;;;5073065;28;20436;-75
2023/10/09 02:01:54;;;;;;;9.20;4.27;;;;;;;;;;5072559;28;20930;-76
2023/10/09 02:04:22;;;;;;;11.57;4.90;;;;;;;;;;5072837;28;20985;-75
2023/10/09 02:06:52;;;;;;;12.47;4.57;;;;;;;;;;5073025;28;20468;-76
2023/10/09 02:09:28;;;;;;;10.70;4.60;;;;;;;;;;5072769;28;20479;-75
2023/10/09 02:11:57;;;;;;;13.97;4.73;;;;;;;;;;5072808;28;20519;-75
2023/10/09 02:14:24;;;;;;;6.70;3.80;;;;;;;;;;5073040;28;20470;-75
2023/10/09 02:17:08;;;;;;;7.40;3.63;;;;;;;;;;5073014;28;20445;-75
2023/10/09 02:19:35;;;;;;;13.87;5.17;;;;;;;;;;5072678;28;20432;-75
2023/10/09 02:22:12;;;;;;;12.70;4.37;;;;;;;;;;5072712;28;20432;-77
2023/10/09 02:24:51;;;;;;;17.10;4.73;;;;;;;;;;5073019;28;20424;-75
2023/10/09 02:30:14;;;;;;;13.87;3.77;;;;;;;;;;5071206;28;20474;-76
2023/10/09 02:32:42;;;;;;;7.70;4.33;;;;;;;;;;5072839;28;20428;-75
2023/10/09 02:35:20;;;;;;;13.13;4.47;;;;;;;;;;5072701;28;20464;-76
2023/10/09 02:37:47;;;;;;;6.50;3.77;;;;;;;;;;5072564;28;20417;-75
2023/10/09 02:40:24;;;;;;;17.83;4.15;;;;;;;;;;5072445;28;20861;-76
2023/10/09 02:42:52;;;;;;;10.00;4.07;;;;;;;;;;5072847;28;20581;-76
2023/10/09 02:45:19;;;;;;;10.37;3.70;;;;;;;;;;5073814;28;20436;-75
2023/10/09 02:47:48;;;;;;;12.83;4.00;;;;;;;;;;5075858;28;20445;-75
2023/10/09 02:50:21;;;;;;;15.10;5.15;;;;;;;;;;5075470;28;20480;-76
2023/10/09 02:53:08;;;;;;;11.73;3.70;;;;;;;;;;5076255;28;20517;-76
2023/10/09 02:55:38;;;;;;;14.93;6.75;;;;;;;;;;5075973;28;20455;-76
2023/10/09 02:58:07;;;;;;;13.57;5.60;;;;;;;;;;5075986;28;20183;-76
2023/10/09 03:00:36;;;;;;;10.73;4.70;;;;;;;;;;5075722;28;20589;-75
2023/10/09 03:03:06;;;;;;;9.00;4.97;;;;;;;;;;5076015;28;20436;-75
2023/10/09 03:05:34;;;;;;;7.83;4.43;;;;;;;;;;5076145;28;20424;-76
2023/10/09 03:08:02;;;;;;;15.47;4.73;;;;;;;;;;5075897;28;20432;-77
2023/10/09 03:10:29;;;;;;;10.03;4.23;;;;;;;;;;5075507;28;20567;-76
2023/10/09 03:13:03;;;;;;;18.80;5.03;;;;;;;;;;5075547;28;20433;-76
2023/10/09 03:15:35;;;;;;;12.10;5.33;;;;;;;;;;5075847;28;20817;-75
2023/10/09 03:18:04;;;;;;;11.60;3.85;;;;;;;;;;5075738;28;20435;-76
2023/10/09 03:20:31;;;;;;;12.00;5.37;;;;;;;;;;5074750;28;20664;-75
2023/10/09 03:23:01;;;;;;;12.50;4.30;;;;;;;;;;5075590;28;20436;-76
2023/10/09 03:25:28;;;;;;;9.27;5.32;;;;;;;;;;5075469;28;20436;-76
2023/10/09 03:27:58;;;;;;;8.90;3.60;;;;;;;;;;5075085;28;20196;-76
2023/10/09 03:30:27;;;;;;;11.63;3.38;;;;;;;;;;5075344;28;20537;-76
2023/10/09 03:32:55;;;;;;;8.20;4.30;;;;;;;;;;5075406;28;20198;-75
2023/10/09 03:35:26;;;;;;;13.95;4.10;;;;;;;;;;5075077;28;20196;-75
2023/10/09 03:37:57;;;;;;;7.80;4.27;;;;;;;;;;5075124;28;20182;-75
2023/10/09 03:40:24;;;;;;;13.15;4.20;;;;;;;;;;5075124;28;20433;-75
2023/10/09 03:42:52;;;;;;;8.80;4.07;;;;;;;;;;5074818;28;20660;-75
2023/10/09 03:45:24;;;;;;;9.23;4.20;;;;;;;;;;5075209;28;20428;-75
2023/10/09 03:48:02;;;;;;;13.80;3.92;;;;;;;;;;5074973;28;20478;-75
2023/10/09 03:50:35;;;;;;;11.45;4.57;;;;;;;;;;5074102;28;20275;-76
2023/10/09 03:53:06;;;;;;;9.00;4.45;;;;;;;;;;5075150;28;20270;-76
2023/10/09 03:55:33;;;;;;;11.50;3.50;;;;;;;;;;5054892;28;20183;-75
2023/10/09 03:58:00;;;;;;;5.13;3.00;;;;;;;;;;5054409;28;20913;-75
2023/10/09 04:00:29;;;;;;;7.07;3.58;;;;;;;;;;5057547;28;20460;-75
2023/10/09 04:02:58;;;;;;;8.27;3.27;;;;;;;;;;5075091;28;20187;-75
2023/10/09 04:05:27;;;;;;;8.75;4.55;;;;;;;;;;5073646;28;20439;-75
2023/10/09 04:07:58;;;;;;;14.25;4.30;;;;;;;;;;5074829;28;20194;-75
2023/10/09 04:10:43;;;;;;;10.38;4.22;;;;;;;;;;5074514;28;20210;-75
2023/10/09 04:13:16;;;;;;;8.93;3.70;;;;;;;;;;5074104;28;20226;-77
2023/10/09 04:15:44;;;;;;;9.88;3.42;;;;;;;;;;5073899;28;20644;-79
2023/10/09 04:18:19;;;;;;;9.73;3.63;;;;;;;;;;5073784;28;20186;-76
2023/10/09 04:21:16;;;;;;;14.02;4.32;;;;;;;;;;5074331;28;20536;-76
2023/10/09 04:24:09;;;;;;;10.50;5.65;;;;;;;;;;5074042;28;20265;-75
2023/10/09 04:26:37;;;;;;;8.73;4.20;;;;;;;;;;5074300;28;20179;-75
2023/10/09 04:29:06;;;;;;;6.63;3.72;;;;;;;;;;5074388;28;20225;-76
2023/10/09 04:31:37;;;;;;;15.32;3.90;;;;;;;;;;5073582;28;20269;-75
2023/10/09 04:37:17;;;;;;;9.23;4.43;;;;;;;;;;5048614;28;20202;-76
2023/10/09 04:39:47;;;;;;;8.02;4.15;;;;;;;;;;5054484;28;20196;-76
2023/10/09 04:42:36;;;;;;;16.33;5.10;;;;;;;;;;5073856;28;20628;-76
2023/10/09 04:48:06;;;;;;;14.05;6.25;;;;;;;;;;5040523;28;20194;-77
2023/10/09 04:51:20;;;;;;;6.40;3.15;;;;;;;;;;5073672;28;20690;-75
2023/10/09 04:53:39;;;;;;;12.07;4.60;;;;;;;;;;5073338;28;20691;-75
2023/10/09 04:56:15;;;;;;;12.45;4.50;;;;;;;;;;5073095;28;20184;-75
2023/10/09 04:58:43;;;;;;;12.65;4.45;;;;;;;;;;5074004;28;20231;-75
2023/10/09 05:01:16;;;;;;;11.98;5.35;;;;;;;;;;5073891;28;20221;-75
2023/10/09 05:03:56;;;;;;;10.27;4.10;;;;;;;;;;5073873;28;20214;-75
2023/10/09 05:06:42;;;;;;;17.27;3.92;;;;;;;;;;5073072;28;20182;-75
2023/10/09 05:09:20;;;;;;;8.30;4.93;;;;;;;;;;5073064;28;20546;-75
2023/10/09 05:14:47;;;;;;;10.77;5.43;;;;;;;;;;5073867;28;20687;-75
2023/10/09 05:17:16;;;;;;;19.63;6.25;;;;;;;;;;5053341;28;20179;-75
2023/10/09 05:19:54;;;;;;;9.93;4.20;;;;;;;;;;5053207;28;20226;-75
2023/10/09 05:25:39;;;;;;;9.75;4.75;;;;;;;;;;5070691;28;20197;-74
2023/10/09 05:28:25;;;;;;;13.13;4.97;;;;;;;;;;5073036;28;20270;-75
2023/10/09 05:30:55;;;;;;;10.20;5.55;;;;;;;;;;5073238;28;20560;-75
2023/10/09 05:33:35;;;;;;;14.68;7.28;;;;;;;;;;5070507;28;20530;-75
2023/10/09 05:36:14;;;;;;;34.40;28.33;;;;;;;;;;5072156;28;20178;-75
2023/10/09 05:38:46;;;;;;;21.15;13.65;;;;;;;;;;5072361;28;20192;-75
2023/10/09 05:47:04;;;;;;;22.10;14.95;;;;;;;;;;5071934;28;20177;-77
2023/10/09 05:49:45;;;;;;;16.38;13.55;;;;;;;;;;5068292;28;20560;-75
2023/10/09 06:03:45;;;;;;;11.88;3.92;;;;;;;;;;5094537;28;20208;-74
2023/10/09 06:06:32;;;;;;;5.97;3.20;;;;;;;;;;5098211;28;20186;-76
2023/10/09 06:12:33;;;;;;;13.17;3.67;;;;;;;;;;5107248;28;20981;-76
2023/10/09 06:14:49;;;;;;;11.80;4.07;;;;;;;;;;5103331;28;20431;-76
2023/10/09 06:17:24;;;;;;;12.37;3.67;;;;;;;;;;5107596;28;20658;-76
2023/10/09 06:19:58;;;;;;;14.37;4.97;;;;;;;;;;5097908;28;20442;-76
2023/10/09 06:25:11;;;;;;;8.97;4.60;;;;;;;;;;5109125;28;20509;-76
2023/10/09 06:30:26;;;;;;;11.00;6.90;;;;;;;;;;5092583;28;20403;-77
2023/10/09 06:35:39;;;;;;;16.43;6.93;;;;;;;;;;5086558;28;20455;-75
2023/10/09 06:43:37;;;;;;;26.37;12.63;;;;;;;;;;5099188;28;20418;-76
2023/10/09 06:48:59;;;;;;;16.57;4.40;;;;;;;;;;5103734;28;20963;-75
2023/10/09 06:51:42;;;;;;;10.30;3.77;;;;;;;;;;5099823;28;20427;-77
2023/10/09 06:54:25;;;;;;;10.23;3.47;;;;;;;;;;5105357;28;20927;-76
2023/10/09 07:02:31;;;;;;;8.97;3.27;;;;;;;;;;5088633;28;20420;-76
2023/10/09 07:05:10;;;;;;;11.50;4.07;;;;;;;;;;5088829;28;20473;-76
2023/10/09 07:07:50;;;;;;;6.70;4.00;;;;;;;;;;5093853;28;20438;-76
2023/10/09 07:10:39;;;;;;;9.93;2.90;;;;;;;;;;5096145;28;20420;-77
2023/10/09 07:13:07;;;;;;;12.00;2.43;;;;;;;;;;5095879;28;20459;-76
2023/10/09 07:18:23;;;;;;;17.47;3.10;;;;;;;;;;5095950;28;20901;-76
2023/10/09 07:21:11;;;;;;;19.67;4.03;;;;;;;;;;5096139;28;20727;-76
2023/10/09 07:23:48;;;;;;;9.17;3.20;;;;;;;;;;5075505;28;20416;-82
2023/10/09 07:26:23;;;;;;;7.77;3.60;;;;;;;;;;5075761;28;20466;-76
2023/10/09 07:28:50;;;;;;;14.63;5.20;;;;;;;;;;5097785;28;20435;-76
2023/10/09 07:31:27;;;;;;;17.77;3.37;;;;;;;;;;5116233;28;20466;-76
2023/10/09 07:33:59;;;;;;;11.43;3.43;;;;;;;;;;5113728;28;20441;-76
2023/10/09 07:36:37;;;;;;;9.83;3.13;;;;;;;;;;5095043;28;20462;-76
2023/10/09 07:39:13;;;;;;;21.00;3.17;;;;;;;;;;5095995;28;20424;-77
2023/10/09 07:42:01;;;;;;;11.77;3.80;;;;;;;;;;5100935;28;20845;-76
2023/10/09 07:44:42;;;;;;;13.87;4.20;;;;;;;;;;5115932;28;20847;-78
2023/10/09 07:47:18;;;;;;;10.90;3.23;;;;;;;;;;5116070;28;20425;-76
2023/10/09 07:49:53;;;;;;;11.47;4.60;;;;;;;;;;5116095;28;20446;-76
2023/10/09 07:52:21;;;;;;;9.43;3.13;;;;;;;;;;5115652;28;20534;-76
2023/10/09 07:55:01;;;;;;;10.23;2.90;;;;;;;;;;5115849;28;20481;-75
2023/10/09 07:57:38;;;;;;;11.37;3.67;;;;;;;;;;5115341;28;20522;-76
2023/10/09 08:00:12;;;;;;;12.57;3.67;;;;;;;;;;5115901;28;20515;-76
2023/10/09 08:02:40;;;;;;;10.80;3.63;;;;;;;;;;5115726;28;20422;-76
2023/10/09 08:05:19;;;;;;;12.70;3.70;;;;;;;;;;5115576;28;20431;-76
2023/10/09 08:08:15;;;;;;;14.63;3.83;;;;;;;;;;5115581;27;20424;-76
2023/10/09 08:16:21;;;;;;;14.50;3.67;;;;;;;;;;5115168;28;20845;-77
2023/10/09 08:18:52;;;;;;;11.90;3.90;;;;;;;;;;5112685;28;20429;-74
2023/10/09 08:21:38;;;;;;;15.07;4.13;;;;;;;;;;5114488;28;20419;-74
2023/10/09 08:24:35;;;;;;;13.77;3.70;;;;;;;;;;5115363;28;20844;-74
2023/10/09 08:30:12;;;;;;;16.07;3.97;;;;;;;;;;5114795;28;20536;-74
2023/10/09 08:32:38;;;;;;;13.70;3.53;;;;;;;;;;5114739;28;20427;-74
2023/10/09 08:35:18;;;;;;;11.03;2.77;;;;;;;;;;5114964;28;20438;-74
2023/10/09 08:37:48;;;;;;;16.63;5.03;;;;;;;;;;5114606;28;20511;-73
2023/10/09 08:40:20;;;;;;;12.43;3.53;;;;;;;;;;5114435;28;20438;-74
2023/10/09 08:42:51;;;;;;;13.73;4.00;;;;;;;;;;5114458;28;20543;-74
2023/10/09 08:45:24;;;;;;;27.97;4.27;;;;;;;;;;5114874;28;20415;-74
2023/10/09 08:47:53;;;;;;;19.63;4.27;;;;;;;;;;5114886;28;20844;-74
2023/10/09 08:50:28;;;;;;;17.47;3.90;;;;;;;;;;5114689;28;20435;-74
2023/10/09 08:52:57;;;;;;;12.20;3.10;;;;;;;;;;5114304;28;20422;-74
2023/10/09 08:55:27;;;;;;;14.93;3.50;;;;;;;;;;5114664;28;20457;-74
2023/10/09 08:57:57;;;;;;;12.43;3.70;;;;;;;;;;5114124;28;20488;-74
2023/10/09 09:00:33;;;;;;;14.37;4.50;;;;;;;;;;5114160;28;20932;-74
2023/10/09 09:03:01;;;;;;;13.50;4.10;;;;;;;;;;5114227;28;20431;-73
2023/10/09 09:05:29;;;;;;;9.97;3.50;;;;;;;;;;5114075;28;20480;-74
2023/10/09 09:07:59;;;;;;;16.10;4.33;;;;;;;;;;5114096;28;20775;-73
2023/10/09 09:10:35;;;;;;;14.07;3.60;;;;;;;;;;5114554;28;20477;-74
2023/10/09 09:13:03;;;;;;;10.40;3.77;;;;;;;;;;5113879;28;20419;-74
2023/10/09 09:15:32;;;;;;;14.53;3.80;;;;;;;;;;5113659;28;20438;-73
2023/10/09 09:18:08;;;;;;;19.20;5.00;;;;;;;;;;5114116;28;20468;-74
2023/10/09 09:20:39;;;;;;;16.67;3.80;;;;;;;;;;5114015;28;20448;-74
2023/10/09 09:23:12;;;;;;;12.00;4.20;;;;;;;;;;5114297;28;20782;-75
2023/10/09 09:25:46;;;;;;;11.90;4.20;;;;;;;;;;5113970;28;20420;-74
2023/10/09 09:28:19;;;;;;;13.50;3.60;;;;;;;;;;5113930;28;20422;-75
2023/10/09 09:30:50;;;;;;;16.47;3.10;;;;;;;;;;5113509;28;20423;-75
2023/10/09 09:33:39;;;;;;;9.13;3.27;;;;;;;;;;5114034;28;20510;-75
2023/10/09 09:36:07;;;;;;;13.00;3.53;;;;;;;;;;5114108;28;20418;-74
2023/10/09 09:38:47;;;;;;;11.53;3.67;;;;;;;;;;5113543;28;20474;-74
2023/10/09 09:41:24;;;;;;;18.27;4.10;;;;;;;;;;5113955;28;20442;-75
2023/10/09 09:43:56;;;;;;;16.97;3.97;;;;;;;;;;5113860;28;20426;-75
2023/10/09 09:46:32;;;;;;;15.47;3.83;;;;;;;;;;5113833;28;20484;-75
2023/10/09 09:49:01;;;;;;;22.17;3.67;;;;;;;;;;5113846;28;20423;-75
2023/10/09 09:51:31;;;;;;;12.70;3.23;;;;;;;;;;5113376;28;20920;-74
2023/10/09 09:54:00;;;;;;;15.77;3.40;;;;;;;;;;5113408;28;20909;-74
2023/10/09 09:56:27;;;;;;;9.67;3.50;;;;;;;;;;5113453;28;20512;-75
2023/10/09 09:58:55;;;;;;;15.63;2.90;;;;;;;;;;5113551;28;20484;-75
2023/10/09 10:01:25;;;;;;;12.90;3.37;;;;;;;;;;5113561;28;20442;-75
2023/10/09 10:03:56;;;;;;;15.40;3.40;;;;;;;;;;5113285;28;20901;-74
2023/10/09 10:06:26;;;;;;;11.50;3.30;;;;;;;;;;5113333;28;20992;-75
2023/10/09 10:08:55;;;;;;;11.97;4.00;;;;;;;;;;5113235;28;20427;-75
2023/10/09 10:11:44;;;;;;;12.30;3.37;;;;;;;;;;5112263;28;20439;-75
2023/10/09 10:14:28;;;;;;;13.10;4.13;;;;;;;;;;5113490;28;20429;-74
2023/10/09 10:17:06;;;;;;;16.60;3.63;;;;;;;;;;5113584;28;20545;-74
2023/10/09 10:20:01;;;;;;;11.20;3.40;;;;;;;;;;5113274;28;20919;-76
2023/10/09 10:22:29;;;;;;;10.43;3.30;;;;;;;;;;5077494;28;20496;-75
2023/10/09 10:24:58;;;;;;;13.07;3.67;;;;;;;;;;5113533;28;20463;-75
2023/10/09 10:27:26;;;;;;;10.53;3.33;;;;;;;;;;5113016;28;20484;-75
2023/10/09 10:30:12;;;;;;;13.10;4.23;;;;;;;;;;5112989;28;20477;-75
2023/10/09 10:35:44;;;;;;;11.47;3.23;;;;;;;;;;5090616;27;20510;-76
2023/10/09 10:38:24;;;;;;;14.53;3.80;;;;;;;;;;5090581;28;20431;-75
2023/10/09 10:40:57;;;;;;;13.50;3.37;;;;;;;;;;5086992;28;20440;-75
2023/10/09 10:43:47;;;;;;;10.80;4.07;;;;;;;;;;5090672;28;20468;-75
2023/10/09 10:46:24;;;;;;;13.10;3.33;;;;;;;;;;5090654;28;20428;-75
2023/10/09 10:48:59;;;;;;;19.10;4.10;;;;;;;;;;5090789;28;20424;-76
2023/10/09 10:51:35;;;;;;;13.43;3.43;;;;;;;;;;5090381;28;20412;-76
2023/10/09 10:56:45;;;;;;;18.20;4.57;;;;;;;;;;5090642;28;20780;-75
2023/10/09 10:59:11;;;;;;;14.17;4.10;;;;;;;;;;5090384;28;20485;-75
2023/10/09 11:01:53;;;;;;;6.00;2.73;;;;;;;;;;5090395;28;20455;-75
2023/10/09 11:04:27;;;;;;;10.70;3.77;;;;;;;;;;5089992;28;20426;-75
2023/10/09 11:07:00;;;;;;;26.77;4.33;;;;;;;;;;5089942;28;20427;-75
2023/10/09 11:09:36;;;;;;;11.40;3.40;;;;;;;;;;5088917;28;20431;-76
2023/10/09 11:12:21;;;;;;;15.90;3.80;;;;;;;;;;5088475;28;20522;-75
2023/10/09 11:15:05;;;;;;;12.53;3.47;;;;;;;;;;5089573;28;20872;-75
2023/10/09 11:17:35;;;;;;;12.60;3.40;;;;;;;;;;5077253;28;20439;-75
2023/10/09 11:20:22;;;;;;;17.57;4.50;;;;;;;;;;5089296;28;20432;-75
2023/10/09 11:23:14;;;;;;;13.10;3.37;;;;;;;;;;5089790;28;20456;-75
2023/10/09 11:25:50;;;;;;;14.33;3.90;;;;;;;;;;5088823;28;20517;-75
2023/10/09 11:28:29;;;;;;;15.93;3.97;;;;;;;;;;5089612;28;20438;-75
2023/10/09 11:30:56;;;;;;;15.70;3.87;;;;;;;;;;5071788;28;20434;-76
2023/10/09 11:33:28;;;;;;;12.67;3.60;;;;;;;;;;5069240;28;20445;-76
2023/10/09 11:35:57;;;;;;;10.80;3.10;;;;;;;;;;5076226;28;20427;-76
2023/10/09 11:38:28;;;;;;;14.80;4.00;;;;;;;;;;5089456;28;20431;-76
2023/10/09 11:43:53;;;;;;;11.83;3.07;;;;;;;;;;5088403;28;20411;-75
2023/10/09 11:46:49;;;;;;;10.50;3.37;;;;;;;;;;5078861;28;20503;-75
2023/10/09 11:49:44;;;;;;;17.00;3.20;;;;;;;;;;5075269;28;20486;-75
2023/10/09 11:54:56;;;;;;;18.17;3.87;;;;;;;;;;5066016;28;20462;-76
2023/10/09 11:57:30;;;;;;;17.47;3.80;;;;;;;;;;5075283;28;20462;-76
2023/10/09 12:00:42;;;;;;;18.90;3.90;;;;;;;;;;5073910;28;20420;-78
2023/10/09 12:03:09;;;;;;;14.47;3.47;;;;;;;;;;5068911;28;20444;-76
2023/10/09 12:05:44;;;;;;;14.27;4.40;;;;;;;;;;5071845;28;20432;-74
2023/10/09 12:08:14;;;;;;;11.37;3.83;;;;;;;;;;5071599;28;20992;-75
2023/10/09 12:10:48;;;;;;;13.90;3.27;;;;;;;;;;5074497;28;20444;-75
2023/10/09 12:13:18;;;;;;;18.63;3.97;;;;;;;;;;5071325;28;20472;-76
2023/10/09 12:15:46;;;;;;;14.63;3.70;;;;;;;;;;5072462;28;20474;-76
2023/10/09 12:18:15;;;;;;;16.63;4.77;;;;;;;;;;5074208;28;20517;-75
2023/10/09 12:20:50;;;;;;;23.73;4.23;;;;;;;;;;5074386;28;20477;-75
2023/10/09 12:23:18;;;;;;;14.20;3.80;;;;;;;;;;5075024;28;20543;-75
2023/10/09 12:25:47;;;;;;;12.27;4.33;;;;;;;;;;5074630;28;20504;-76
2023/10/09 12:28:20;;;;;;;11.87;3.30;;;;;;;;;;5074610;28;20448;-75
2023/10/09 12:30:51;;;;;;;15.27;4.00;;;;;;;;;;5073990;28;20429;-76
2023/10/09 12:33:27;;;;;;;12.10;3.73;;;;;;;;;;5074233;28;20486;-75
2023/10/09 12:35:59;;;;;;;10.30;2.53;;;;;;;;;;5074374;28;20507;-75
2023/10/09 12:38:31;;;;;;;14.97;3.37;;;;;;;;;;5074207;28;20448;-75
2023/10/09 12:41:08;;;;;;;10.00;3.00;;;;;;;;;;5074140;28;20516;-75
2023/10/09 12:43:38;;;;;;;14.90;3.80;;;;;;;;;;5074068;28;20449;-75
2023/10/09 12:46:07;;;;;;;9.50;3.10;;;;;;;;;;5073965;28;20989;-75
2023/10/09 12:48:37;;;;;;;19.00;3.70;;;;;;;;;;5073820;28;20428;-75
2023/10/09 12:51:07;;;;;;;17.43;4.07;;;;;;;;;;5073805;28;20506;-75
2023/10/09 12:53:34;;;;;;;13.70;3.80;;;;;;;;;;5074247;28;20768;-75
2023/10/09 12:56:04;;;;;;;10.67;3.73;;;;;;;;;;5074042;28;20491;-75
2023/10/09 12:58:37;;;;;;;11.20;3.30;;;;;;;;;;5072267;28;20464;-75
2023/10/09 13:01:09;;;;;;;12.40;3.67;;;;;;;;;;5073726;28;20527;-75
2023/10/09 13:03:38;;;;;;;12.93;4.00;;;;;;;;;;5073725;28;20437;-75
2023/10/09 13:06:10;;;;;;;13.90;3.60;;;;;;;;;;5073812;28;20594;-75
2023/10/09 13:08:41;;;;;;;8.07;2.33;;;;;;;;;;5073608;28;20531;-75
2023/10/09 13:11:11;;;;;;;18.27;3.67;;;;;;;;;;5073365;28;20447;-75
2023/10/09 13:13:40;;;;;;;14.33;3.07;;;;;;;;;;5073699;28;20839;-75
2023/10/09 13:16:11;;;;;;;13.93;3.50;;;;;;;;;;5073488;28;20484;-75
2023/10/09 13:18:38;;;;;;;18.03;4.30;;;;;;;;;;5073708;28;20468;-76
2023/10/09 13:21:08;;;;;;;11.93;3.27;;;;;;;;;;5073106;28;20436;-75
2023/10/09 13:23:40;;;;;;;26.17;5.40;;;;;;;;;;5073367;28;20890;-76
2023/10/09 13:26:17;;;;;;;20.63;3.73;;;;;;;;;;5073162;28;20439;-75
2023/10/09 13:28:50;;;;;;;15.10;3.80;;;;;;;;;;5073120;28;20468;-75
2023/10/09 13:31:17;;;;;;;17.03;5.30;;;;;;;;;;5073482;28;20440;-75
2023/10/09 13:33:45;;;;;;;8.97;3.20;;;;;;;;;;5073273;28;20810;-75
2023/10/09 13:36:26;;;;;;;13.43;3.60;;;;;;;;;;5073203;28;20480;-76
2023/10/09 13:38:54;;;;;;;15.07;3.60;;;;;;;;;;5069819;28;20443;-75
2023/10/09 13:41:28;;;;;;;11.37;3.13;;;;;;;;;;5069516;28;20506;-75
2023/10/09 13:43:57;;;;;;;10.37;3.10;;;;;;;;;;5069553;28;20766;-76
2023/10/09 13:46:25;;;;;;;9.90;2.70;;;;;;;;;;5069699;28;20497;-75
2023/10/09 13:48:54;;;;;;;15.87;3.87;;;;;;;;;;5068679;28;20535;-74
2023/10/09 13:51:24;;;;;;;13.50;3.50;;;;;;;;;;5072750;28;20889;-75
2023/10/09 13:53:53;;;;;;;15.77;3.13;;;;;;;;;;5073145;28;20448;-75
2023/10/09 13:56:21;;;;;;;17.77;3.03;;;;;;;;;;5072584;28;20524;-76
2023/10/09 13:58:53;;;;;;;7.77;3.33;;;;;;;;;;5072441;28;20453;-74
2023/10/09 14:01:27;;;;;;;10.27;3.77;;;;;;;;;;5072633;28;20437;-75
2023/10/09 14:04:01;;;;;;;13.50;2.87;;;;;;;;;;5072998;28;20427;-75
2023/10/09 14:06:32;;;;;;;9.17;2.90;;;;;;;;;;5068969;28;20818;-76
2023/10/09 14:09:00;;;;;;;14.40;5.07;;;;;;;;;;5068229;28;20463;-75
2023/10/09 14:11:27;;;;;;;10.17;2.90;;;;;;;;;;5072410;28;20914;-75
2023/10/09 14:13:55;;;;;;;16.73;3.90;;;;;;;;;;5072407;28;20510;-75
2023/10/09 14:16:28;;;;;;;10.47;2.70;;;;;;;;;;5072262;28;20492;-76
2023/10/09 14:18:59;;;;;;;8.73;3.00;;;;;;;;;;5071993;28;20494;-74
2023/10/09 14:21:29;;;;;;;27.20;4.13;;;;;;;;;;5072475;28;20432;-75
2023/10/09 14:23:58;;;;;;;16.50;2.93;;;;;;;;;;5072216;28;20451;-75
2023/10/09 14:26:29;;;;;;;12.50;3.10;;;;;;;;;;5072780;28;20437;-75
2023/10/09 14:28:59;;;;;;;17.80;4.27;;;;;;;;;;5071849;28;20448;-75
2023/10/09 14:31:28;;;;;;;13.40;3.60;;;;;;;;;;5072181;28;20520;-75
2023/10/09 14:33:56;;;;;;;13.53;3.70;;;;;;;;;;5072284;28;20506;-75
2023/10/09 14:36:33;;;;;;;14.00;3.80;;;;;;;;;;5072312;28;20480;-76
2023/10/09 14:39:06;;;;;;;9.73;3.20;;;;;;;;;;5072177;28;20442;-75
2023/10/09 14:41:34;;;;;;;12.40;3.30;;;;;;;;;;5068764;28;20444;-75
2023/10/09 14:44:04;;;;;;;16.37;4.03;;;;;;;;;;5072232;28;20527;-75
2023/10/09 14:46:35;;;;;;;14.83;3.30;;;;;;;;;;5071956;28;20945;-75
2023/10/09 14:49:02;;;;;;;12.50;3.40;;;;;;;;;;5071744;28;20443;-75
2023/10/09 14:51:33;;;;;;;18.83;3.90;;;;;;;;;;5072016;28;20443;-75
2023/10/09 14:54:01;;;;;;;13.30;4.40;;;;;;;;;;5072422;28;20751;-75
2023/10/09 14:56:33;;;;;;;15.77;3.53;;;;;;;;;;5072182;28;20484;-75
2023/10/09 14:59:02;;;;;;;8.17;3.47;;;;;;;;;;5071879;28;20436;-74
2023/10/09 15:01:34;;;;;;;10.67;3.20;;;;;;;;;;5071744;28;21762;-75
2023/10/09 15:04:03;;;;;;;16.60;2.77;;;;;;;;;;5071959;28;20428;-75
2023/10/09 15:06:35;;;;;;;14.60;3.07;;;;;;;;;;5071803;28;20536;-77
2023/10/09 15:09:08;;;;;;;9.20;3.23;;;;;;;;;;5071757;28;20539;-74
2023/10/09 15:11:40;;;;;;;14.87;3.07;;;;;;;;;;5068747;28;20428;-77
2023/10/09 15:14:08;;;;;;;7.70;2.60;;;;;;;;;;5067516;28;20985;-75
2023/10/09 15:16:39;;;;;;;8.63;3.07;;;;;;;;;;5071470;28;20875;-75
2023/10/09 15:19:09;;;;;;;12.73;3.30;;;;;;;;;;5072006;28;20437;-75
2023/10/09 15:21:43;;;;;;;19.83;4.00;;;;;;;;;;5074563;28;20444;-75
2023/10/09 15:24:15;;;;;;;11.27;2.87;;;;;;;;;;5074888;28;20534;-76
2023/10/09 15:26:43;;;;;;;17.17;4.17;;;;;;;;;;5072356;28;20421;-75
2023/10/09 15:29:11;;;;;;;14.73;4.30;;;;;;;;;;5072174;28;20444;-76
2023/10/09 15:31:42;;;;;;;20.67;4.80;;;;;;;;;;5075284;28;20475;-75
2023/10/09 15:34:09;;;;;;;40.67;15.47;;;;;;;;;;5071399;28;20563;-75
2023/10/09 15:36:37;;;;;;;19.93;7.40;;;;;;;;;;5075414;28;20570;-75
2023/10/09 15:39:07;;;;;;;22.63;6.30;;;;;;;;;;5075085;28;21948;-75
2023/10/09 15:41:40;;;;;;;12.50;4.33;;;;;;;;;;5075366;28;20436;-75
2023/10/09 15:44:10;;;;;;;18.43;5.40;;;;;;;;;;5075531;28;20448;-75
2023/10/09 15:46:37;;;;;;;15.90;4.53;;;;;;;;;;5075095;28;20985;-75
2023/10/09 15:49:09;;;;;;;18.93;5.77;;;;;;;;;;5075404;28;20428;-74
2023/10/09 15:51:36;;;;;;;9.93;3.00;;;;;;;;;;5074978;28;20450;-75
2023/10/09 15:54:05;;;;;;;12.03;3.60;;;;;;;;;;5075580;28;20437;-75
2023/10/09 15:56:34;;;;;;;14.10;2.53;;;;;;;;;;5075144;28;20476;-74
2023/10/09 15:59:02;;;;;;;12.17;2.87;;;;;;;;;;5074707;28;20449;-75
2023/10/09 16:01:31;;;;;;;17.43;3.63;;;;;;;;;;5074931;28;20440;-75
2023/10/09 16:04:00;;;;;;;11.73;2.53;;;;;;;;;;5075198;28;20494;-74
2023/10/09 16:06:31;;;;;;;9.70;2.80;;;;;;;;;;5074626;28;20494;-74
2023/10/09 16:08:58;;;;;;;16.90;3.10;;;;;;;;;;5074847;28;20437;-74
2023/10/09 16:11:26;;;;;;;13.47;4.57;;;;;;;;;;5074662;28;20440;-74
2023/10/09 16:13:53;;;;;;;11.97;4.00;;;;;;;;;;5074355;28;20992;-75
2023/10/09 16:16:28;;;;;;;9.43;3.40;;;;;;;;;;5074899;28;20899;-73
2023/10/09 16:18:56;;;;;;;11.73;3.33;;;;;;;;;;5074172;28;20440;-74
2023/10/09 16:21:24;;;;;;;12.70;3.63;;;;;;;;;;5074297;28;20441;-74
2023/10/09 16:23:53;;;;;;;12.57;4.13;;;;;;;;;;5075218;28;20463;-73
2023/10/09 16:26:24;;;;;;;14.07;3.80;;;;;;;;;;5075014;28;20849;-74